sensor_id;sensor_type;location;lat;lon;timestamp;pressure;altitude;pressure_sealevel;temperature;humidity
54948;BME280;41113;41.882;12.530;2023-03-03T00:42:59;100875.84;;;9.28;92.95
54948;BME280;41113;41.882;12.530;2023-03-03T00:48:52;100876.59;;;9.19;94.52
54948;BME280;41113;41.882;12.530;2023-03-03T01:27:51;100835.81;;;9.58;89.96
54948;BME280;41113;41.882;12.530;2023-03-03T01:56:09;100789.66;;;8.89;92.81
54948;BME280;41113;41.882;12.530;2023-03-03T01:58:37;100782.84;;;8.85;93.21
54948;BME280;41113;41.882;12.530;2023-03-03T02:01:08;100777.22;;;8.77;93.96
54948;BME280;41113;41.882;12.530;2023-03-03T02:03:39;100776.28;;;8.78;94.51
54948;BME280;41113;41.882;12.530;2023-03-03T02:06:09;100778.09;;;8.78;93.77
54948;BME280;41113;41.882;12.530;2023-03-03T02:27:00;100771.91;;;8.66;94.74
54948;BME280;41113;41.882;12.530;2023-03-03T02:29:47;100769.34;;;8.64;95.08
54948;BME280;41113;41.882;12.530;2023-03-03T02:32:29;100773.25;;;8.60;95.59
54948;BME280;41113;41.882;12.530;2023-03-03T02:35:00;100768.75;;;8.61;95.76
54948;BME280;41113;41.882;12.530;2023-03-03T02:37:44;100768.00;;;8.48;96.67
54948;BME280;41113;41.882;12.530;2023-03-03T02:40:20;100777.22;;;8.43;97.61
54948;BME280;41113;41.882;12.530;2023-03-03T02:43:00;100770.41;;;8.39;97.55
54948;BME280;41113;41.882;12.530;2023-03-03T02:45:48;100780.88;;;8.42;97.65
54948;BME280;41113;41.882;12.530;2023-03-03T02:49:18;100769.19;;;8.43;97.95
54948;BME280;41113;41.882;12.530;2023-03-03T02:52:08;100769.72;;;8.49;96.68
54948;BME280;41113;41.882;12.530;2023-03-03T02:54:38;100780.44;;;8.49;96.25
54948;BME280;41113;41.882;12.530;2023-03-03T02:57:15;100770.69;;;8.48;96.15
54948;BME280;41113;41.882;12.530;2023-03-03T03:00:21;100771.88;;;8.43;95.37
54948;BME280;41113;41.882;12.530;2023-03-03T03:06:43;100770.91;;;8.33;95.94
54948;BME280;41113;41.882;12.530;2023-03-03T03:12:56;100766.41;;;8.34;94.96
54948;BME280;41113;41.882;12.530;2023-03-03T03:57:36;100769.13;;;8.10;92.41
54948;BME280;41113;41.882;12.530;2023-03-03T04:00:38;100773.00;;;8.06;92.52
54948;BME280;41113;41.882;12.530;2023-03-03T04:03:05;100775.97;;;8.14;92.26
54948;BME280;41113;41.882;12.530;2023-03-03T04:05:44;100769.16;;;8.21;92.00
54948;BME280;41113;41.882;12.530;2023-03-03T04:08:19;100777.88;;;8.12;92.24
54948;BME280;41113;41.882;12.530;2023-03-03T04:11:38;100776.16;;;8.11;92.58
54948;BME280;41113;41.882;12.530;2023-03-03T04:14:38;100773.72;;;7.97;92.80
54948;BME280;41113;41.882;12.530;2023-03-03T04:31:16;100783.31;;;7.99;92.87
54948;BME280;41113;41.882;12.530;2023-03-03T04:37:13;100794.41;;;8.06;92.63
54948;BME280;41113;41.882;12.530;2023-03-03T04:39:48;100797.97;;;8.18;92.06
54948;BME280;41113;41.882;12.530;2023-03-03T04:42:25;100805.59;;;8.11;91.72
54948;BME280;41113;41.882;12.530;2023-03-03T04:44:59;100812.75;;;8.10;91.70
54948;BME280;41113;41.882;12.530;2023-03-03T04:50:45;100816.53;;;8.08;91.18
54948;BME280;41113;41.882;12.530;2023-03-03T05:00:17;100821.66;;;8.11;91.07
54948;BME280;41113;41.882;12.530;2023-03-03T05:02:57;100813.06;;;8.19;90.71
54948;BME280;41113;41.882;12.530;2023-03-03T05:05:28;100808.31;;;8.22;89.96
54948;BME280;41113;41.882;12.530;2023-03-03T05:07:58;100814.16;;;8.27;90.05
54948;BME280;41113;41.882;12.530;2023-03-03T05:10:27;100811.25;;;8.30;89.29
54948;BME280;41113;41.882;12.530;2023-03-03T05:12:58;100808.56;;;8.30;89.48
54948;BME280;41113;41.882;12.530;2023-03-03T05:15:52;100810.28;;;8.31;88.97
54948;BME280;41113;41.882;12.530;2023-03-03T05:18:25;100816.88;;;8.38;89.05
54948;BME280;41113;41.882;12.530;2023-03-03T05:21:28;100808.13;;;8.36;88.75
54948;BME280;41113;41.882;12.530;2023-03-03T05:24:04;100806.41;;;8.35;88.42
54948;BME280;41113;41.882;12.530;2023-03-03T05:26:57;100807.47;;;8.33;88.36
54948;BME280;41113;41.882;12.530;2023-03-03T05:30:01;100795.94;;;8.32;88.66
54948;BME280;41113;41.882;12.530;2023-03-03T05:48:57;100798.44;;;8.47;86.46
54948;BME280;41113;41.882;12.530;2023-03-03T05:51:42;100812.78;;;8.57;85.70
54948;BME280;41113;41.882;12.530;2023-03-03T05:54:09;100809.38;;;8.66;85.65
54948;BME280;41113;41.882;12.530;2023-03-03T05:56:37;100811.56;;;8.72;85.25
54948;BME280;41113;41.882;12.530;2023-03-03T05:59:02;100808.28;;;8.68;84.81
54948;BME280;41113;41.882;12.530;2023-03-03T06:01:28;100813.03;;;8.76;83.88
54948;BME280;41113;41.882;12.530;2023-03-03T06:03:53;100818.38;;;8.76;84.26
54948;BME280;41113;41.882;12.530;2023-03-03T06:06:21;100817.91;;;8.82;83.58
54948;BME280;41113;41.882;12.530;2023-03-03T06:08:48;100818.53;;;8.86;83.49
54948;BME280;41113;41.882;12.530;2023-03-03T06:11:13;100813.16;;;8.97;84.12
54948;BME280;41113;41.882;12.530;2023-03-03T06:13:40;100815.47;;;8.90;83.89
54948;BME280;41113;41.882;12.530;2023-03-03T06:16:09;100810.38;;;8.87;84.40
54948;BME280;41113;41.882;12.530;2023-03-03T06:18:34;100810.59;;;8.84;84.61
54948;BME280;41113;41.882;12.530;2023-03-03T06:21:00;100808.88;;;8.94;84.18
54948;BME280;41113;41.882;12.530;2023-03-03T06:23:27;100819.72;;;9.04;83.00
54948;BME280;41113;41.882;12.530;2023-03-03T06:25:52;100807.44;;;9.13;82.44
54948;BME280;41113;41.882;12.530;2023-03-03T06:28:18;100812.88;;;9.22;81.63
54948;BME280;41113;41.882;12.530;2023-03-03T06:30:45;100821.41;;;9.27;80.65
54948;BME280;41113;41.882;12.530;2023-03-03T06:33:13;100814.69;;;9.33;80.97
54948;BME280;41113;41.882;12.530;2023-03-03T06:35:38;100823.44;;;9.35;80.62
54948;BME280;41113;41.882;12.530;2023-03-03T06:48:19;100826.59;;;9.51;79.83
54948;BME280;41113;41.882;12.530;2023-03-03T06:50:44;100834.63;;;9.51;80.46
54948;BME280;41113;41.882;12.530;2023-03-03T06:53:12;100838.03;;;9.53;80.96
54948;BME280;41113;41.882;12.530;2023-03-03T06:55:38;100837.09;;;9.43;81.34
54948;BME280;41113;41.882;12.530;2023-03-03T06:58:11;100836.84;;;9.35;81.64
54948;BME280;41113;41.882;12.530;2023-03-03T07:00:38;100838.41;;;9.38;82.13
54948;BME280;41113;41.882;12.530;2023-03-03T07:03:14;100840.97;;;9.39;82.06
54948;BME280;41113;41.882;12.530;2023-03-03T07:05:47;100835.22;;;9.55;82.63
54948;BME280;41113;41.882;12.530;2023-03-03T07:08:18;100835.81;;;9.58;82.08
54948;BME280;41113;41.882;12.530;2023-03-03T07:10:45;100837.28;;;9.62;81.88
54948;BME280;41113;41.882;12.530;2023-03-03T07:13:22;100839.44;;;9.68;81.62
54948;BME280;41113;41.882;12.530;2023-03-03T07:15:50;100837.63;;;9.69;81.52
54948;BME280;41113;41.882;12.530;2023-03-03T07:18:24;100844.09;;;9.66;81.31
54948;BME280;41113;41.882;12.530;2023-03-03T07:20:57;100848.25;;;9.59;81.81
54948;BME280;41113;41.882;12.530;2023-03-03T07:23:25;100851.44;;;9.53;81.92
54948;BME280;41113;41.882;12.530;2023-03-03T07:25:52;100857.66;;;9.43;83.08
54948;BME280;41113;41.882;12.530;2023-03-03T07:28:28;100845.34;;;9.40;83.26
54948;BME280;41113;41.882;12.530;2023-03-03T07:30:56;100854.03;;;9.44;83.05
54948;BME280;41113;41.882;12.530;2023-03-03T07:33:29;100851.69;;;9.39;83.46
54948;BME280;41113;41.882;12.530;2023-03-03T07:36:00;100860.59;;;9.40;83.47
54948;BME280;41113;41.882;12.530;2023-03-03T07:38:36;100855.88;;;9.43;83.68
54948;BME280;41113;41.882;12.530;2023-03-03T07:41:04;100848.88;;;9.41;83.66
54948;BME280;41113;41.882;12.530;2023-03-03T07:43:53;100852.94;;;9.35;83.77
54948;BME280;41113;41.882;12.530;2023-03-03T07:46:46;100856.72;;;9.32;83.57
54948;BME280;41113;41.882;12.530;2023-03-03T07:49:36;100860.63;;;9.28;84.02
54948;BME280;41113;41.882;12.530;2023-03-03T07:54:43;100865.38;;;9.25;84.03
54948;BME280;41113;41.882;12.530;2023-03-03T07:59:36;100857.56;;;9.33;84.23
54948;BME280;41113;41.882;12.530;2023-03-03T08:02:13;100865.34;;;9.47;83.94
54948;BME280;41113;41.882;12.530;2023-03-03T08:04:43;100858.88;;;9.50;83.81
54948;BME280;41113;41.882;12.530;2023-03-03T08:07:16;100861.69;;;9.48;83.08
54948;BME280;41113;41.882;12.530;2023-03-03T08:09:43;100858.50;;;9.54;83.38
54948;BME280;41113;41.882;12.530;2023-03-03T08:12:37;100862.63;;;9.58;83.55
54948;BME280;41113;41.882;12.530;2023-03-03T08:15:23;100872.84;;;9.64;83.91
54948;BME280;41113;41.882;12.530;2023-03-03T08:17:51;100867.50;;;9.64;83.37
54948;BME280;41113;41.882;12.530;2023-03-03T08:20:58;100870.38;;;9.73;83.40
54948;BME280;41113;41.882;12.530;2023-03-03T08:23:25;100868.22;;;9.78;83.57
54948;BME280;41113;41.882;12.530;2023-03-03T08:25:51;100872.06;;;9.85;83.40
54948;BME280;41113;41.882;12.530;2023-03-03T08:28:18;100867.06;;;9.91;83.64
54948;BME280;41113;41.882;12.530;2023-03-03T08:30:44;100874.19;;;10.02;83.30
54948;BME280;41113;41.882;12.530;2023-03-03T08:33:10;100876.13;;;10.11;83.42
54948;BME280;41113;41.882;12.530;2023-03-03T08:35:36;100862.88;;;10.31;82.68
54948;BME280;41113;41.882;12.530;2023-03-03T08:38:02;100867.00;;;10.35;82.74
54948;BME280;41113;41.882;12.530;2023-03-03T08:40:29;100870.00;;;10.20;83.45
54948;BME280;41113;41.882;12.530;2023-03-03T08:42:54;100876.28;;;10.31;83.31
54948;BME280;41113;41.882;12.530;2023-03-03T08:45:22;100871.59;;;10.44;82.73
54948;BME280;41113;41.882;12.530;2023-03-03T08:47:48;100872.25;;;10.57;81.26
54948;BME280;41113;41.882;12.530;2023-03-03T08:50:13;100870.41;;;10.78;81.04
54948;BME280;41113;41.882;12.530;2023-03-03T08:52:39;100878.38;;;10.89;79.86
54948;BME280;41113;41.882;12.530;2023-03-03T08:55:05;100875.69;;;10.89;79.85
54948;BME280;41113;41.882;12.530;2023-03-03T08:57:30;100873.59;;;10.93;79.80
54948;BME280;41113;41.882;12.530;2023-03-03T08:59:56;100873.31;;;10.96;75.50
54948;BME280;41113;41.882;12.530;2023-03-03T09:02:21;100873.47;;;11.04;75.13
54948;BME280;41113;41.882;12.530;2023-03-03T09:04:49;100872.06;;;11.00;73.33
54948;BME280;41113;41.882;12.530;2023-03-03T09:07:15;100870.78;;;11.04;75.08
54948;BME280;41113;41.882;12.530;2023-03-03T09:09:40;100869.22;;;11.32;75.31
54948;BME280;41113;41.882;12.530;2023-03-03T09:12:15;100867.88;;;11.57;72.75
54948;BME280;41113;41.882;12.530;2023-03-03T09:14:41;100876.09;;;11.65;71.80
54948;BME280;41113;41.882;12.530;2023-03-03T09:17:29;100871.88;;;11.72;71.37
54948;BME280;41113;41.882;12.530;2023-03-03T09:20:09;100879.47;;;11.58;68.28
54948;BME280;41113;41.882;12.530;2023-03-03T09:22:43;100880.34;;;11.58;71.36
54948;BME280;41113;41.882;12.530;2023-03-03T09:25:33;100875.50;;;11.42;67.98
54948;BME280;41113;41.882;12.530;2023-03-03T09:28:00;100878.03;;;11.44;70.51
54948;BME280;41113;41.882;12.530;2023-03-03T09:30:36;100885.13;;;11.45;69.15
54948;BME280;41113;41.882;12.530;2023-03-03T09:33:20;100881.59;;;11.44;70.20
54948;BME280;41113;41.882;12.530;2023-03-03T09:35:50;100884.00;;;11.57;70.54
54948;BME280;41113;41.882;12.530;2023-03-03T09:49:10;100875.28;;;11.74;70.03
54948;BME280;41113;41.882;12.530;2023-03-03T09:54:41;100863.78;;;11.63;70.67
54948;BME280;41113;41.882;12.530;2023-03-03T10:07:42;100866.56;;;12.21;68.86
54948;BME280;41113;41.882;12.530;2023-03-03T10:17:50;100864.13;;;12.46;65.62
54948;BME280;41113;41.882;12.530;2023-03-03T10:39:39;100839.16;;;13.56;63.03
54948;BME280;41113;41.882;12.530;2023-03-03T10:59:01;100842.88;;;13.55;64.42
54948;BME280;41113;41.882;12.530;2023-03-03T11:07:18;100837.78;;;13.52;63.42
54948;BME280;41113;41.882;12.530;2023-03-03T11:13:41;100838.09;;;13.49;64.23
54948;BME280;41113;41.882;12.530;2023-03-03T11:16:20;100829.00;;;13.50;63.10
54948;BME280;41113;41.882;12.530;2023-03-03T11:24:57;100832.00;;;13.64;63.11
54948;BME280;41113;41.882;12.530;2023-03-03T11:27:59;100826.88;;;13.71;62.84
54948;BME280;41113;41.882;12.530;2023-03-03T11:33:22;100819.50;;;13.63;62.85
54948;BME280;41113;41.882;12.530;2023-03-03T11:38:42;100812.00;;;13.67;63.90
54948;BME280;41113;41.882;12.530;2023-03-03T11:41:22;100810.06;;;13.77;63.06
54948;BME280;41113;41.882;12.530;2023-03-03T11:44:02;100813.03;;;13.92;63.39
54948;BME280;41113;41.882;12.530;2023-03-03T11:46:35;100806.50;;;13.94;63.36
54948;BME280;41113;41.882;12.530;2023-03-03T11:49:06;100798.94;;;13.80;61.89
54948;BME280;41113;41.882;12.530;2023-03-03T11:51:57;100796.72;;;13.76;62.65
54948;BME280;41113;41.882;12.530;2023-03-03T11:57:21;100785.97;;;13.84;62.94
54948;BME280;41113;41.882;12.530;2023-03-03T12:05:29;100775.41;;;13.90;61.90
54948;BME280;41113;41.882;12.530;2023-03-03T12:08:43;100769.94;;;13.82;60.80
54948;BME280;41113;41.882;12.530;2023-03-03T12:11:27;100776.66;;;13.78;61.45
54948;BME280;41113;41.882;12.530;2023-03-03T12:16:56;100767.31;;;13.90;60.75
54948;BME280;41113;41.882;12.530;2023-03-03T12:25:03;100755.38;;;13.75;58.65
54948;BME280;41113;41.882;12.530;2023-03-03T12:27:40;100751.28;;;13.35;59.22
54948;BME280;41113;41.882;12.530;2023-03-03T12:30:15;100758.38;;;13.36;61.41
54948;BME280;41113;41.882;12.530;2023-03-03T12:35:41;100757.13;;;13.84;60.15
54948;BME280;41113;41.882;12.530;2023-03-03T12:41:07;100748.88;;;14.04;59.93
54948;BME280;41113;41.882;12.530;2023-03-03T12:46:21;100747.88;;;14.05;60.87
54948;BME280;41113;41.882;12.530;2023-03-03T12:48:48;100749.56;;;14.06;60.85
54948;BME280;41113;41.882;12.530;2023-03-03T12:56:44;100740.44;;;14.07;60.28
54948;BME280;41113;41.882;12.530;2023-03-03T12:59:20;100745.38;;;13.93;60.72
54948;BME280;41113;41.882;12.530;2023-03-03T13:07:19;100739.38;;;13.99;60.20
54948;BME280;41113;41.882;12.530;2023-03-03T13:10:23;100741.69;;;13.94;58.88
54948;BME280;41113;41.882;12.530;2023-03-03T13:13:05;100743.38;;;13.95;59.94
54948;BME280;41113;41.882;12.530;2023-03-03T13:16:05;100740.63;;;13.87;59.13
54948;BME280;41113;41.882;12.530;2023-03-03T13:26:39;100742.69;;;13.93;60.13
54948;BME280;41113;41.882;12.530;2023-03-03T13:31:51;100736.59;;;13.91;59.98
54948;BME280;41113;41.882;12.530;2023-03-03T13:37:14;100744.31;;;13.86;60.68
54948;BME280;41113;41.882;12.530;2023-03-03T13:40:04;100749.56;;;13.88;60.10
54948;BME280;41113;41.882;12.530;2023-03-03T13:42:48;100749.34;;;13.81;60.63
54948;BME280;41113;41.882;12.530;2023-03-03T13:56:46;100748.22;;;13.66;61.03
54948;BME280;41113;41.882;12.530;2023-03-03T13:58:52;100747.41;;;13.56;61.06
54948;BME280;41113;41.882;12.530;2023-03-03T14:01:33;100750.38;;;13.45;60.34
54948;BME280;41113;41.882;12.530;2023-03-03T14:04:48;100749.13;;;13.39;61.50
54948;BME280;41113;41.882;12.530;2023-03-03T14:06:58;100760.06;;;13.37;61.48
54948;BME280;41113;41.882;12.530;2023-03-03T14:09:35;100760.06;;;13.37;61.41
54948;BME280;41113;41.882;12.530;2023-03-03T14:20:33;100758.56;;;13.25;61.43
54948;BME280;41113;41.882;12.530;2023-03-03T14:25:58;100752.63;;;13.22;61.89
54948;BME280;41113;41.882;12.530;2023-03-03T14:28:27;100747.09;;;13.23;61.72
54948;BME280;41113;41.882;12.530;2023-03-03T14:30:55;100738.31;;;13.21;61.75
54948;BME280;41113;41.882;12.530;2023-03-03T14:33:25;100740.16;;;13.21;61.64
54948;BME280;41113;41.882;12.530;2023-03-03T14:36:02;100729.53;;;13.19;61.23
54948;BME280;41113;41.882;12.530;2023-03-03T14:44:34;100730.91;;;13.23;61.54
54948;BME280;41113;41.882;12.530;2023-03-03T14:49:35;100724.91;;;13.29;61.48
54948;BME280;41113;41.882;12.530;2023-03-03T14:54:37;100714.81;;;13.31;61.52
54948;BME280;41113;41.882;12.530;2023-03-03T14:57:35;100720.66;;;13.27;60.50
54948;BME280;41113;41.882;12.530;2023-03-03T15:00:08;100720.81;;;13.25;61.88
54948;BME280;41113;41.882;12.530;2023-03-03T15:03:04;100718.13;;;13.25;61.67
54948;BME280;41113;41.882;12.530;2023-03-03T15:05:47;100714.19;;;13.20;61.46
54948;BME280;41113;41.882;12.530;2023-03-03T15:08:14;100715.34;;;13.17;62.24
54948;BME280;41113;41.882;12.530;2023-03-03T15:10:41;100713.34;;;13.19;62.46
54948;BME280;41113;41.882;12.530;2023-03-03T15:15:52;100707.09;;;13.19;62.38
54948;BME280;41113;41.882;12.530;2023-03-03T15:18:30;100706.38;;;13.17;62.81
54948;BME280;41113;41.882;12.530;2023-03-03T15:21:09;100708.22;;;13.16;62.53
54948;BME280;41113;41.882;12.530;2023-03-03T15:26:44;100693.56;;;13.01;62.25
54948;BME280;41113;41.882;12.530;2023-03-03T15:29:31;100690.16;;;12.99;62.98
54948;BME280;41113;41.882;12.530;2023-03-03T15:32:27;100692.69;;;13.00;63.02
54948;BME280;41113;41.882;12.530;2023-03-03T15:45:44;100697.16;;;12.92;63.65
54948;BME280;41113;41.882;12.530;2023-03-03T16:01:57;100696.00;;;12.67;64.64
54948;BME280;41113;41.882;12.530;2023-03-03T16:04:28;100699.16;;;12.62;64.82
54948;BME280;41113;41.882;12.530;2023-03-03T16:07:05;100702.44;;;12.56;65.20
54948;BME280;41113;41.882;12.530;2023-03-03T16:15:51;100711.44;;;12.47;65.33
54948;BME280;41113;41.882;12.530;2023-03-03T16:21:51;100712.31;;;12.38;65.43
54948;BME280;41113;41.882;12.530;2023-03-03T16:26:59;100722.81;;;12.31;65.97
54948;BME280;41113;41.882;12.530;2023-03-03T16:29:44;100715.19;;;12.27;66.19
54948;BME280;41113;41.882;12.530;2023-03-03T16:32:36;100726.25;;;12.24;66.63
54948;BME280;41113;41.882;12.530;2023-03-03T16:35:32;100719.47;;;12.20;66.85
54948;BME280;41113;41.882;12.530;2023-03-03T16:40:56;100731.09;;;12.10;67.79
54948;BME280;41113;41.882;12.530;2023-03-03T16:45:48;100729.00;;;12.04;67.74
54948;BME280;41113;41.882;12.530;2023-03-03T17:00:13;100731.16;;;11.81;68.77
54948;BME280;41113;41.882;12.530;2023-03-03T17:06:09;100744.28;;;11.75;69.07
54948;BME280;41113;41.882;12.530;2023-03-03T17:14:57;100755.44;;;11.70;68.89
54948;BME280;41113;41.882;12.530;2023-03-03T17:17:43;100766.22;;;11.70;69.67
54948;BME280;41113;41.882;12.530;2023-03-03T17:22:53;100761.25;;;11.66;69.21
54948;BME280;41113;41.882;12.530;2023-03-03T17:25:31;100762.25;;;11.65;69.42
54948;BME280;41113;41.882;12.530;2023-03-03T17:31:25;100769.91;;;11.60;69.80
54948;BME280;41113;41.882;12.530;2023-03-03T17:36:26;100772.03;;;11.66;69.96
54948;BME280;41113;41.882;12.530;2023-03-03T17:44:54;100776.13;;;11.70;70.50
54948;BME280;41113;41.882;12.530;2023-03-03T18:09:54;100801.84;;;11.24;74.87
54948;BME280;41113;41.882;12.530;2023-03-03T18:15:19;100804.59;;;11.03;74.80
54948;BME280;41113;41.882;12.530;2023-03-03T18:18:23;100798.91;;;10.87;74.80
54948;BME280;41113;41.882;12.530;2023-03-03T18:20:59;100814.44;;;10.83;75.61
54948;BME280;41113;41.882;12.530;2023-03-03T18:23:32;100810.47;;;10.78;75.36
54948;BME280;41113;41.882;12.530;2023-03-03T18:26:01;100801.41;;;10.79;75.30
54948;BME280;41113;41.882;12.530;2023-03-03T18:28:50;100802.53;;;10.76;76.53
54948;BME280;41113;41.882;12.530;2023-03-03T18:31:27;100815.97;;;10.76;75.65
54948;BME280;41113;41.882;12.530;2023-03-03T18:39:00;100825.69;;;10.47;76.60
54948;BME280;41113;41.882;12.530;2023-03-03T18:41:28;100824.84;;;10.46;76.42
54948;BME280;41113;41.882;12.530;2023-03-03T18:43:59;100826.00;;;10.33;77.80
54948;BME280;41113;41.882;12.530;2023-03-03T18:49:00;100820.38;;;10.15;78.46
54948;BME280;41113;41.882;12.530;2023-03-03T19:02:18;100811.31;;;9.95;80.22
54948;BME280;41113;41.882;12.530;2023-03-03T19:10:40;100814.91;;;9.84;81.20
54948;BME280;41113;41.882;12.530;2023-03-03T19:12:53;100810.38;;;9.85;82.23
54948;BME280;41113;41.882;12.530;2023-03-03T19:17:57;100818.88;;;9.90;81.75
54948;BME280;41113;41.882;12.530;2023-03-03T19:20:24;100813.84;;;9.96;80.99
54948;BME280;41113;41.882;12.530;2023-03-03T19:22:59;100814.13;;;9.93;81.02
54948;BME280;41113;41.882;12.530;2023-03-03T19:25:27;100810.72;;;9.91;81.14
54948;BME280;41113;41.882;12.530;2023-03-03T19:31:04;100814.44;;;10.00;81.35
54948;BME280;41113;41.882;12.530;2023-03-03T19:39:03;100813.25;;;9.93;82.26
54948;BME280;41113;41.882;12.530;2023-03-03T19:44:25;100807.06;;;9.92;81.99
54948;BME280;41113;41.882;12.530;2023-03-03T19:49:41;100813.47;;;10.01;81.18
54948;BME280;41113;41.882;12.530;2023-03-03T19:55:41;100819.09;;;9.98;81.35
54948;BME280;41113;41.882;12.530;2023-03-03T19:58:50;100834.31;;;9.77;82.68
54948;BME280;41113;41.882;12.530;2023-03-03T20:04:18;100841.44;;;9.55;83.21
54948;BME280;41113;41.882;12.530;2023-03-03T20:10:06;100836.84;;;9.46;83.91
54948;BME280;41113;41.882;12.530;2023-03-03T20:21:43;100845.13;;;9.32;82.94
54948;BME280;41113;41.882;12.530;2023-03-03T20:27:05;100848.16;;;9.39;82.68
54948;BME280;41113;41.882;12.530;2023-03-03T20:37:40;100846.00;;;9.32;82.61
54948;BME280;41113;41.882;12.530;2023-03-03T20:46:41;100846.38;;;9.17;82.45
54948;BME280;41113;41.882;12.530;2023-03-03T21:04:29;100834.72;;;8.84;84.22
54948;BME280;41113;41.882;12.530;2023-03-03T21:07:02;100844.56;;;8.84;84.26
54948;BME280;41113;41.882;12.530;2023-03-03T21:09:29;100851.88;;;8.82;84.54
54948;BME280;41113;41.882;12.530;2023-03-03T21:11:57;100853.59;;;8.83;84.32
54948;BME280;41113;41.882;12.530;2023-03-03T21:14:24;100849.81;;;8.85;84.31
54948;BME280;41113;41.882;12.530;2023-03-03T21:16:53;100847.13;;;8.85;84.24
54948;BME280;41113;41.882;12.530;2023-03-03T21:19:33;100846.97;;;8.76;84.79
54948;BME280;41113;41.882;12.530;2023-03-03T21:22:00;100848.31;;;8.70;85.08
54948;BME280;41113;41.882;12.530;2023-03-03T21:24:52;100842.84;;;8.71;85.11
54948;BME280;41113;41.882;12.530;2023-03-03T21:27:33;100837.13;;;8.76;84.96
54948;BME280;41113;41.882;12.530;2023-03-03T21:30:13;100834.44;;;8.65;85.12
54948;BME280;41113;41.882;12.530;2023-03-03T21:32:46;100837.84;;;8.67;84.96
54948;BME280;41113;41.882;12.530;2023-03-03T21:35:20;100830.56;;;8.69;84.49
54948;BME280;41113;41.882;12.530;2023-03-03T21:37:55;100827.38;;;8.75;83.95
54948;BME280;41113;41.882;12.530;2023-03-03T21:42:50;100829.59;;;8.81;83.90
54948;BME280;41113;41.882;12.530;2023-03-03T21:45:17;100832.03;;;8.84;83.82
54948;BME280;41113;41.882;12.530;2023-03-03T21:47:49;100821.06;;;8.76;83.62
54948;BME280;41113;41.882;12.530;2023-03-03T21:50:17;100823.72;;;8.76;83.76
54948;BME280;41113;41.882;12.530;2023-03-03T22:20:53;100822.75;;;8.55;84.33
54948;BME280;41113;41.882;12.530;2023-03-03T22:23:54;100821.06;;;8.54;84.15
54948;BME280;41113;41.882;12.530;2023-03-03T22:26:19;100822.75;;;8.55;83.82
54948;BME280;41113;41.882;12.530;2023-03-03T22:28:49;100825.94;;;8.49;83.70
54948;BME280;41113;41.882;12.530;2023-03-03T22:31:15;100822.16;;;8.51;83.40
54948;BME280;41113;41.882;12.530;2023-03-03T22:33:41;100823.69;;;8.42;83.44
54948;BME280;41113;41.882;12.530;2023-03-03T22:36:07;100817.66;;;8.52;83.11
54948;BME280;41113;41.882;12.530;2023-03-03T22:38:33;100826.41;;;8.54;83.00
54948;BME280;41113;41.882;12.530;2023-03-03T22:40:58;100832.25;;;8.48;82.96
54948;BME280;41113;41.882;12.530;2023-03-03T22:43:24;100825.19;;;8.47;82.86
54948;BME280;41113;41.882;12.530;2023-03-03T22:45:50;100830.50;;;8.35;83.34
54948;BME280;41113;41.882;12.530;2023-03-03T22:48:15;100833.38;;;8.32;83.15
54948;BME280;41113;41.882;12.530;2023-03-03T22:50:42;100835.34;;;8.30;83.23
54948;BME280;41113;41.882;12.530;2023-03-03T22:53:09;100842.06;;;8.36;82.96
54948;BME280;41113;41.882;12.530;2023-03-03T22:55:34;100837.28;;;8.28;83.30
54948;BME280;41113;41.882;12.530;2023-03-03T22:58:04;100830.69;;;8.21;83.48
54948;BME280;41113;41.882;12.530;2023-03-03T23:00:30;100828.13;;;8.20;83.91
54948;BME280;41113;41.882;12.530;2023-03-03T23:02:56;100826.88;;;8.12;83.95
54948;BME280;41113;41.882;12.530;2023-03-03T23:05:21;100819.69;;;8.02;84.29
54948;BME280;41113;41.882;12.530;2023-03-03T23:07:46;100819.28;;;7.95;85.14
54948;BME280;41113;41.882;12.530;2023-03-03T23:10:12;100827.69;;;7.91;85.14
54948;BME280;41113;41.882;12.530;2023-03-03T23:12:37;100825.22;;;7.88;85.40
54948;BME280;41113;41.882;12.530;2023-03-03T23:15:04;100824.16;;;7.90;85.63
54948;BME280;41113;41.882;12.530;2023-03-03T23:17:33;100826.81;;;7.90;85.66
54948;BME280;41113;41.882;12.530;2023-03-03T23:19:58;100827.19;;;7.97;85.28
54948;BME280;41113;41.882;12.530;2023-03-03T23:22:24;100823.56;;;7.98;85.19
54948;BME280;41113;41.882;12.530;2023-03-03T23:24:49;100831.81;;;7.95;85.09
54948;BME280;41113;41.882;12.530;2023-03-03T23:27:14;100834.50;;;7.95;85.08
54948;BME280;41113;41.882;12.530;2023-03-03T23:29:40;100835.34;;;7.95;84.68
54948;BME280;41113;41.882;12.530;2023-03-03T23:32:05;100838.50;;;7.89;85.00
54948;BME280;41113;41.882;12.530;2023-03-03T23:34:31;100835.19;;;7.86;85.38
54948;BME280;41113;41.882;12.530;2023-03-03T23:36:56;100844.19;;;7.85;84.97
54948;BME280;41113;41.882;12.530;2023-03-03T23:39:22;100832.28;;;7.89;84.98
54948;BME280;41113;41.882;12.530;2023-03-03T23:41:47;100840.19;;;7.90;84.85
54948;BME280;41113;41.882;12.530;2023-03-03T23:44:13;100842.97;;;7.89;84.68
54948;BME280;41113;41.882;12.530;2023-03-03T23:46:39;100840.31;;;7.89;84.09
54948;BME280;41113;41.882;12.530;2023-03-03T23:49:05;100838.09;;;7.83;84.02
54948;BME280;41113;41.882;12.530;2023-03-03T23:51:32;100849.97;;;7.78;84.13
54948;BME280;41113;41.882;12.530;2023-03-03T23:53:57;100846.13;;;7.83;84.12
54948;BME280;41113;41.882;12.530;2023-03-03T23:56:23;100844.22;;;7.72;83.53
54948;BME280;41113;41.882;12.530;2023-03-03T23:58:48;100849.41;;;7.62;83.96
